Search for airport 
image banner adimage banner adimage banner ad
image banner ad

CA99 - Kilroy Ac8-Long Beach

Located in Long Beach, United States

ICAO - CA99, IATA -

Data provided by Airmate  

General information

Coordinates: N33°48'27" W118°8'45"
Elevation is 121 feet MSL.
Magnetic variation is 14° East
View others Airports in California

Operational data

Special qualification required
Current time UTC:
Current local time:
METAR: KLGB 211253Z AUTO 00000KT 8SM OVC013 17/14 A2996 RMK AO2 SLP144 T01720144 $
TAF: KLGB 211124Z 2112/2212 VRB03KT P6SM OVC011 FM211800 21007KT P6SM SKC FM212230 30010KT P6SM SKC FM220500 VRB03KT P6SM SKC FM220900 VRB03KT P6SM OVC012
View NOTAMs / SUP AIP / TFR affecting this airport [VIEW]
Communications frequencies: [VIEW]

Runways:

Airport contact information

Address: Long Beach United States

Satellite view of CA99